Time;durP1;ratioP1;P1;durP2;ratioP2;P2;SDS_P1;SDS_P2;PMS_P1;PMS_P2;Temp;Humidity;BMP_temperature;BMP_pressure;BME280_temperature;BME280_humidity;BME280_pressure;Samples;Min_cycle;Max_cycle;Signal;HPM_P1;HPM_P2
2022/11/15 00:01:18;;;;;;;25.17;12.47;;;4.50;99.90;;;2.11;100.00;100614.81;10470067;28;20053;-84
2022/11/15 00:06:21;;;;;;;41.80;16.97;;;4.50;99.90;;;2.11;100.00;100613.00;10464192;28;20069;-84
2022/11/15 00:11:24;;;;;;;29.37;14.03;;;4.50;99.90;;;2.12;100.00;100611.22;10483589;28;20072;-84
2022/11/15 00:16:27;;;;;;;22.93;11.73;;;4.40;99.90;;;2.09;100.00;100604.41;10482721;28;20057;-84
2022/11/15 00:21:30;;;;;;;25.00;12.13;;;4.40;99.90;;;2.05;100.00;100602.09;10507385;28;20575;-83
2022/11/15 00:26:33;;;;;;;17.73;9.63;;;4.40;99.90;;;2.05;100.00;100599.50;10502463;28;20072;-83
2022/11/15 00:31:36;;;;;;;27.77;12.13;;;4.40;99.90;;;2.03;100.00;100599.56;10492350;28;20064;-83
2022/11/15 00:36:40;;;;;;;23.13;11.30;;;4.40;99.90;;;2.01;100.00;100584.91;10509630;28;20069;-82
2022/11/15 00:41:43;;;;;;;23.73;10.23;;;4.40;99.90;;;2.01;100.00;100596.22;10485113;28;20417;-82
2022/11/15 00:46:46;;;;;;;23.33;10.60;;;4.40;99.90;;;2.01;100.00;100582.28;10485652;28;20532;-82
2022/11/15 00:51:49;;;;;;;23.17;10.57;;;4.40;99.90;;;1.97;100.00;100584.25;10501269;28;20107;-84
2022/11/15 00:56:52;;;;;;;17.30;8.67;;;4.30;99.90;;;1.95;100.00;100565.19;10481067;28;20068;-81
2022/11/15 01:01:54;;;;;;;16.33;8.33;;;4.30;99.90;;;1.98;100.00;100561.50;10497913;28;20065;-82
2022/11/15 01:06:58;;;;;;;17.97;8.37;;;4.30;99.90;;;2.04;100.00;100563.72;10516602;28;20057;-82
2022/11/15 01:12:01;;;;;;;22.77;10.00;;;4.40;99.90;;;2.14;100.00;100564.75;10479092;28;20049;-84
2022/11/15 01:17:04;;;;;;;33.03;12.43;;;4.50;99.90;;;2.23;100.00;100558.91;10499311;28;20057;-82
2022/11/15 01:22:08;;;;;;;29.60;11.47;;;4.60;99.90;;;2.34;100.00;100556.38;10513526;28;20103;-82
2022/11/15 01:27:11;;;;;;;27.03;11.10;;;4.70;99.90;;;2.44;100.00;100551.31;10500312;28;20064;-82
2022/11/15 01:32:14;;;;;;;26.80;12.20;;;4.80;99.90;;;2.55;100.00;100551.41;10485954;28;20065;-82
2022/11/15 01:37:17;;;;;;;25.13;12.60;;;4.90;99.90;;;2.58;100.00;100548.59;10479188;28;20069;-82
2022/11/15 01:42:20;;;;;;;22.87;11.57;;;4.90;99.90;;;2.55;100.00;100546.16;10469494;28;20061;-82
2022/11/15 01:47:29;;;;;;;21.70;9.80;;;4.90;99.90;;;2.58;100.00;100545.09;10497517;28;20056;-84
2022/11/15 01:52:34;;;;;;;23.63;11.03;;;4.90;99.90;;;2.62;100.00;100534.28;10514545;28;20111;-84
2022/11/15 01:57:39;;;;;;;17.73;9.73;;;4.90;99.90;;;2.72;100.00;100523.97;10461063;28;20399;-84
2022/11/15 02:02:43;;;;;;;16.47;8.53;;;5.00;99.90;;;2.81;100.00;100528.56;10491116;28;20060;-83
2022/11/15 02:07:47;;;;;;;15.17;7.57;;;5.10;99.90;;;2.91;100.00;100528.75;10470907;28;20088;-83
2022/11/15 02:12:52;;;;;;;15.47;7.73;;;5.20;99.90;;;3.00;100.00;100524.59;10461171;28;20065;-83
2022/11/15 02:18:07;;;;;;;17.90;8.07;;;5.30;99.90;;;3.08;100.00;100525.72;10499940;28;20421;-83
2022/11/15 02:23:47;;;;;;;21.63;9.23;;;5.40;99.90;;;3.19;100.00;100515.28;10522559;28;20523;-83
2022/11/15 02:29:05;;;;;;;15.33;7.60;;;5.50;99.90;;;3.28;100.00;100515.53;10488488;28;20061;-83
2022/11/15 02:34:46;;;;;;;14.53;6.70;;;5.60;99.90;;;3.35;100.00;100509.72;10502079;28;20513;-83
2022/11/15 02:40:12;;;;;;;17.07;7.67;;;5.60;99.90;;;3.45;100.00;100508.09;10473709;28;20060;-83
2022/11/15 02:45:24;;;;;;;14.63;7.40;;;5.70;99.90;;;3.53;100.00;100498.78;10480419;28;20057;-81
2022/11/15 02:50:30;;;;;;;16.13;7.17;;;5.80;99.90;;;3.60;100.00;100494.75;10504187;28;20057;-82
2022/11/15 02:55:41;;;;;;;10.33;5.80;;;5.90;99.90;;;3.65;100.00;100485.56;10475367;28;20057;-82
2022/11/15 03:01:42;;;;;;;13.35;7.15;;;6.00;99.90;;;3.72;100.00;100493.84;10494863;28;20064;-82
2022/11/15 03:07:16;;;;;;;10.13;5.43;;;6.00;99.90;;;3.72;100.00;100496.47;10351549;28;20068;-82
2022/11/15 03:12:44;;;;;;;14.43;7.07;;;6.00;99.90;;;3.71;100.00;100482.47;10501880;28;20088;-82
2022/11/15 03:18:15;;;;;;;15.80;7.07;;;6.00;99.90;;;3.76;100.00;100490.00;10500326;28;20064;-82
2022/11/15 03:23:18;;;;;;;13.60;7.03;;;6.00;99.90;;;3.76;100.00;100479.50;10487322;28;20064;-82
2022/11/15 03:28:32;;;;;;;17.17;7.80;;;6.00;99.90;;;3.81;100.00;100476.50;10466902;28;20057;-81
2022/11/15 03:33:35;;;;;;;13.57;6.13;;;6.10;99.90;;;3.86;100.00;100477.00;10479078;28;20061;-81
2022/11/15 03:38:39;;;;;;;15.20;6.77;;;6.10;99.90;;;3.92;100.00;100476.53;10461915;28;20054;-82
2022/11/15 03:44:41;;;;;;;21.17;9.60;;;6.20;99.90;;;3.96;100.00;100463.03;10498045;28;20508;-81
2022/11/15 03:49:55;;;;;;;22.80;11.20;;;6.20;99.90;;;4.00;100.00;100461.00;10455948;28;20060;-84
2022/11/15 03:55:02;;;;;;;23.97;11.57;;;6.30;99.90;;;3.99;100.00;100452.25;10502428;28;20496;-84
2022/11/15 04:00:06;;;;;;;82.87;36.57;;;6.30;99.90;;;4.00;100.00;100453.94;10504399;28;20108;-84
2022/11/15 04:05:09;;;;;;;37.03;19.20;;;6.30;99.90;;;4.05;100.00;100447.47;10478593;28;20057;-84
2022/11/15 04:10:13;;;;;;;61.23;28.20;;;6.30;99.90;;;4.07;100.00;100442.94;10476638;28;20061;-82
2022/11/15 04:15:19;;;;;;;38.57;18.47;;;6.30;99.90;;;4.07;100.00;100448.19;10488973;28;20144;-82
2022/11/15 04:26:07;;;;;;;45.30;23.77;;;6.40;99.90;;;4.06;100.00;100422.84;10412458;28;20060;-82
2022/11/15 04:31:10;;;;;;;39.00;18.03;;;6.30;99.90;;;4.03;100.00;100419.53;10481852;28;20164;-82
2022/11/15 04:41:34;;;;;;;26.17;13.00;;;6.30;99.90;;;3.98;100.00;100413.78;10470613;28;20065;-82
2022/11/15 04:46:37;;;;;;;27.33;13.07;;;6.20;99.90;;;3.97;100.00;100420.00;10492747;28;20115;-81
2022/11/15 04:51:40;;;;;;;25.47;12.57;;;6.20;99.90;;;3.99;100.00;100423.34;10503119;28;20567;-83
2022/11/15 04:56:43;;;;;;;27.33;13.33;;;6.20;99.90;;;4.04;100.00;100430.88;10495309;28;20057;-88
2022/11/15 05:01:46;;;;;;;37.77;19.20;;;6.30;99.90;;;4.08;100.00;100415.66;10489115;28;20061;-79
2022/11/15 05:06:51;;;;;;;31.53;14.57;;;6.30;99.90;;;4.12;100.00;100411.84;10498205;28;20517;-79
2022/11/15 05:11:54;;;;;;;34.57;14.07;;;6.40;99.90;;;4.17;100.00;100418.44;10501205;28;20057;-80
2022/11/15 05:16:57;;;;;;;26.20;12.23;;;6.40;99.90;;;4.16;100.00;100406.25;10491067;28;20049;-79
2022/11/15 05:22:00;;;;;;;25.40;11.73;;;6.40;99.90;;;4.17;100.00;100405.28;10499787;28;20057;-79
2022/11/15 05:27:03;;;;;;;22.30;11.97;;;6.40;99.90;;;4.20;100.00;100409.47;10500192;28;20064;-80
2022/11/15 05:32:08;;;;;;;25.23;12.67;;;6.40;99.90;;;4.24;100.00;100406.44;10483791;28;20065;-80
2022/11/15 05:37:11;;;;;;;36.57;17.43;;;6.50;99.90;;;4.29;100.00;100400.84;10484030;28;20115;-80
2022/11/15 05:42:16;;;;;;;110.00;45.77;;;6.60;99.90;;;4.33;100.00;100399.63;10501894;28;20061;-79
2022/11/15 05:47:25;;;;;;;70.40;30.90;;;6.60;99.90;;;4.38;100.00;100397.47;10471830;28;20057;-78
2022/11/15 05:52:34;;;;;;;46.30;22.77;;;6.60;99.90;;;4.47;100.00;100407.25;10499513;28;20132;-80
2022/11/15 05:57:37;;;;;;;40.87;18.77;;;6.70;99.90;;;4.53;100.00;100396.22;10507838;28;20061;-80
2022/11/15 06:02:40;;;;;;;34.07;16.57;;;6.80;99.90;;;4.61;100.00;100397.41;10520087;28;20053;-81
2022/11/15 06:07:44;;;;;;;27.77;13.73;;;6.80;99.90;;;4.68;100.00;100403.81;10540155;28;20053;-80
2022/11/15 06:12:47;;;;;;;25.87;13.13;;;6.90;99.90;;;4.73;100.00;100396.38;10503491;28;20451;-80
2022/11/15 06:17:49;;;;;;;26.57;13.53;;;7.00;99.90;;;4.78;100.00;100397.69;10506526;28;20067;-80
2022/11/15 06:23:04;;;;;;;28.50;14.53;;;7.00;99.90;;;4.84;100.00;100409.50;10480851;28;20061;-80
2022/11/15 06:28:07;;;;;;;30.30;15.40;;;7.10;99.90;;;4.89;100.00;100404.72;10519624;28;20060;-80
2022/11/15 06:33:10;;;;;;;16.20;9.03;;;7.10;99.90;;;4.93;100.00;100403.50;10521577;28;20068;-80
2022/11/15 06:38:13;;;;;;;24.90;12.30;;;7.20;99.90;;;4.99;100.00;100402.16;10466327;28;20512;-80
2022/11/15 06:43:16;;;;;;;26.47;13.67;;;7.20;99.90;;;5.00;100.00;100402.03;10457434;28;20140;-80
2022/11/15 06:48:19;;;;;;;27.37;13.27;;;7.30;99.90;;;5.02;100.00;100402.72;10526231;28;20053;-80
2022/11/15 06:53:22;;;;;;;26.67;13.90;;;7.20;99.90;;;5.04;100.00;100411.38;10510625;28;20061;-79
2022/11/15 06:58:25;;;;;;;29.90;14.47;;;7.20;99.90;;;5.06;100.00;100404.16;10496626;28;20410;-80
2022/11/15 07:03:28;;;;;;;22.47;11.93;;;7.30;99.90;;;5.13;100.00;100393.09;10487034;28;20161;-80
2022/11/15 07:08:32;;;;;;;20.13;11.10;;;7.30;99.90;;;5.20;100.00;100394.25;10457104;28;20104;-80
2022/11/15 07:13:37;;;;;;;20.53;9.97;;;7.40;99.90;;;5.28;100.00;100394.47;10501980;28;20461;-80
2022/11/15 07:18:40;;;;;;;24.40;11.80;;;7.50;99.90;;;5.33;100.00;100387.81;10505942;28;20416;-80
2022/11/15 07:23:43;;;;;;;26.83;12.33;;;7.60;99.90;;;5.39;100.00;100378.56;10503096;28;20057;-80
2022/11/15 07:28:48;;;;;;;24.03;11.50;;;7.60;99.90;;;5.45;100.00;100377.22;10485773;28;20122;-80
2022/11/15 07:33:51;;;;;;;23.83;12.57;;;7.70;99.90;;;5.49;100.00;100392.63;10487596;28;20519;-80
2022/11/15 07:38:54;;;;;;;26.70;13.90;;;7.70;99.90;;;5.53;100.00;100386.16;10486800;28;20096;-80
2022/11/15 07:43:57;;;;;;;34.77;17.67;;;7.80;99.90;;;5.55;100.00;100371.03;10489479;28;20084;-80
2022/11/15 07:49:00;;;;;;;38.67;18.27;;;7.80;99.90;;;5.60;100.00;100373.28;10503983;28;20416;-80
2022/11/15 07:54:03;;;;;;;29.47;14.97;;;7.80;99.90;;;5.66;100.00;100358.75;10486894;28;20060;-80
2022/11/15 07:59:06;;;;;;;36.80;22.67;;;7.90;99.90;;;5.73;100.00;100363.34;10468995;28;20061;-80
2022/11/15 08:04:11;;;;;;;29.97;16.03;;;7.90;99.90;;;5.80;100.00;100367.09;10481085;28;20061;-80
2022/11/15 08:09:14;;;;;;;34.07;15.00;;;8.00;99.90;;;5.85;100.00;100358.81;10485862;28;20065;-80
2022/11/15 08:14:17;;;;;;;26.73;14.57;;;8.10;99.90;;;5.88;100.00;100348.00;10485975;28;20065;-80
2022/11/15 08:19:20;;;;;;;24.93;14.20;;;8.10;99.90;;;5.93;100.00;100350.25;10498999;28;20114;-80
2022/11/15 08:24:23;;;;;;;26.20;13.37;;;8.20;99.90;;;6.01;100.00;100347.78;10502345;28;20147;-80
2022/11/15 08:29:26;;;;;;;22.47;12.57;;;8.20;99.90;;;6.09;100.00;100343.50;10488190;28;20061;-80
2022/11/15 08:34:29;;;;;;;23.63;13.47;;;8.30;99.90;;;6.16;100.00;100334.06;10469407;28;20056;-80
2022/11/15 08:39:32;;;;;;;30.10;16.03;;;8.40;99.90;;;6.25;100.00;100329.78;10502360;28;20061;-80
2022/11/15 08:44:35;;;;;;;22.67;12.33;;;8.50;99.90;;;6.37;100.00;100320.78;10506067;28;20065;-80
2022/11/15 08:49:37;;;;;;;22.87;13.13;;;8.60;99.90;;;6.51;100.00;100318.69;10461103;28;20064;-79
2022/11/15 08:54:40;;;;;;;30.50;15.50;;;8.70;99.90;;;6.63;100.00;100302.56;10495321;28;20065;-79
2022/11/15 08:59:43;;;;;;;22.07;12.80;;;8.80;99.90;;;6.73;100.00;100305.22;10500555;28;20127;-80
2022/11/15 09:04:47;;;;;;;18.83;11.47;;;8.90;99.90;;;6.78;100.00;100295.06;10517528;28;20061;-80
2022/11/15 09:09:50;;;;;;;26.03;13.67;;;9.00;99.90;;;6.83;100.00;100297.25;10484885;28;20507;-79
2022/11/15 09:14:54;;;;;;;23.17;13.37;;;9.10;99.90;;;6.85;100.00;100305.88;10472613;28;20152;-80
2022/11/15 09:19:58;;;;;;;22.63;13.10;;;9.10;99.90;;;6.84;100.00;100298.94;10473286;28;20103;-79
2022/11/15 09:25:01;;;;;;;32.80;17.07;;;9.10;99.90;;;6.89;100.00;100301.97;10486154;28;20053;-79
2022/11/15 09:30:05;;;;;;;23.67;14.03;;;9.10;99.90;;;6.99;100.00;100292.22;10488712;28;20061;-80
2022/11/15 09:35:08;;;;;;;30.97;17.13;;;9.20;99.90;;;7.00;100.00;100275.38;10499607;28;20424;-80
2022/11/15 09:40:16;;;;;;;22.40;13.67;;;9.20;99.90;;;7.06;100.00;100279.28;10483303;28;20140;-80
2022/11/15 09:45:29;;;;;;;28.47;16.17;;;9.20;99.90;;;7.05;100.00;100267.88;10498995;28;20148;-80
2022/11/15 09:50:37;;;;;;;26.07;13.50;;;9.20;99.90;;;7.12;100.00;100255.75;10499886;28;20061;-80
2022/11/15 09:56:00;;;;;;;20.27;13.17;;;9.30;99.90;;;7.13;100.00;100254.75;10499293;28;20096;-80
2022/11/15 10:01:16;;;;;;;23.13;13.57;;;9.30;99.90;;;7.21;100.00;100254.91;10472996;28;20065;-80
2022/11/15 10:06:26;;;;;;;25.27;14.07;;;9.40;99.90;;;7.23;100.00;100252.94;10460066;28;20144;-80
2022/11/15 10:11:32;;;;;;;34.67;12.30;;;9.40;99.90;;;7.22;100.00;100248.63;10478326;28;20557;-80
2022/11/15 10:17:05;;;;;;;22.80;12.73;;;9.40;99.90;;;7.18;100.00;100243.75;10458209;28;20053;-80
2022/11/15 10:22:50;;;;;;;25.20;12.40;;;9.40;99.90;;;7.11;100.00;100235.59;10458792;28;20061;-79
2022/11/15 10:28:03;;;;;;;22.37;13.00;;;9.30;99.90;;;7.07;100.00;100221.00;10494474;28;20513;-80
2022/11/15 10:33:35;;;;;;;21.80;12.47;;;9.30;99.90;;;7.11;100.00;100216.25;10519228;28;20425;-79
2022/11/15 10:38:52;;;;;;;26.50;10.95;;;9.30;99.90;;;7.11;100.00;100201.22;10504200;28;20521;-80
2022/11/15 10:44:07;;;;;;;24.07;13.50;;;9.30;99.90;;;7.15;100.00;100197.34;10484099;28;20178;-79
2022/11/15 10:49:21;;;;;;;26.60;14.67;;;9.40;99.90;;;7.16;100.00;100184.94;10505629;28;20072;-80
2022/11/15 10:54:35;;;;;;;22.07;12.57;;;9.40;99.90;;;7.14;100.00;100182.47;10504794;28;20769;-80
2022/11/15 10:59:42;;;;;;;24.17;14.07;;;9.40;99.90;;;7.19;100.00;100172.25;10518419;28;20475;-80
2022/11/15 11:04:52;;;;;;;22.07;12.87;;;9.40;99.90;;;7.27;100.00;100165.44;10472671;28;20053;-79
2022/11/15 11:10:21;;;;;;;18.67;11.53;;;9.50;99.90;;;7.35;100.00;100161.06;10488612;28;20143;-79
2022/11/15 11:15:47;;;;;;;28.63;16.27;;;9.60;99.90;;;7.41;100.00;100160.47;10490340;28;20061;-79
2022/11/15 11:21:02;;;;;;;26.70;14.97;;;9.60;99.90;;;7.48;100.00;100150.94;10536964;28;20080;-80
2022/11/15 11:26:36;;;;;;;23.00;12.47;;;9.70;99.90;;;7.51;100.00;100150.66;10487203;28;20096;-80
2022/11/15 11:31:58;;;;;;;26.50;14.83;;;9.70;99.90;;;7.50;100.00;100143.72;10503921;28;20394;-80
2022/11/15 11:37:57;;;;;;;21.43;11.67;;;9.70;99.90;;;7.50;100.00;100146.38;10504049;28;20406;-80
2022/11/15 11:44:02;;;;;;;25.73;15.90;;;9.70;99.90;;;7.48;100.00;100129.78;10439758;28;20060;-79
2022/11/15 11:49:49;;;;;;;24.37;14.13;;;9.70;99.90;;;7.50;100.00;100125.22;10492199;28;20408;-80
2022/11/15 11:55:20;;;;;;;23.67;12.57;;;9.70;99.90;;;7.55;100.00;100116.81;10476765;28;20068;-79
2022/11/15 12:00:28;;;;;;;23.57;13.50;;;9.70;99.90;;;7.53;100.00;100105.56;10502605;28;20058;-80
2022/11/15 12:05:37;;;;;;;31.20;17.90;;;9.70;99.90;;;7.48;100.00;100084.03;10518252;28;20064;-80
2022/11/15 12:10:45;;;;;;;24.60;14.70;;;9.70;99.90;;;7.44;100.00;100080.88;10526137;28;20063;-81
2022/11/15 12:15:58;;;;;;;25.07;14.03;;;9.70;99.90;;;7.40;100.00;100063.63;10501022;28;20139;-80
2022/11/15 12:21:14;;;;;;;29.40;14.87;;;9.70;99.90;;;7.37;100.00;100063.09;10493187;28;20139;-81
2022/11/15 12:26:25;;;;;;;89.27;48.60;;;9.60;99.90;;;7.35;100.00;100065.06;10479545;28;20132;-81
2022/11/15 12:31:34;;;;;;;28.08;17.58;;;9.60;99.90;;;7.30;100.00;100062.84;10505763;28;20065;-81
2022/11/15 12:36:42;;;;;;;35.80;21.70;;;9.50;99.90;;;7.28;100.00;100053.44;10460387;28;20062;-81
2022/11/15 12:42:39;;;;;;;31.83;17.63;;;9.50;99.90;;;7.28;100.00;100043.69;10453441;28;20061;-82
2022/11/15 12:47:42;;;;;;;26.57;16.20;;;9.50;99.90;;;7.28;100.00;100041.03;10462646;28;20061;-82
2022/11/15 12:53:22;;;;;;;32.87;17.27;;;9.50;99.90;;;7.28;100.00;100042.84;10461724;28;20543;-82
2022/11/15 12:58:39;;;;;;;23.67;14.43;;;9.50;99.90;;;7.27;100.00;100046.50;10493345;28;20068;-82
2022/11/15 13:04:19;;;;;;;23.90;14.40;;;9.40;99.90;;;7.25;100.00;100031.59;10498449;28;20144;-82
2022/11/15 13:09:35;;;;;;;26.07;14.83;;;9.40;99.90;;;7.21;100.00;100016.19;10491035;28;20061;-82
2022/11/15 13:14:58;;;;;;;24.53;14.27;;;9.40;99.90;;;7.16;100.00;100014.00;10468096;28;20053;-82
2022/11/15 13:20:06;;;;;;;35.60;16.33;;;9.30;99.90;;;7.10;100.00;100017.25;10497179;28;20061;-82
2022/11/15 13:25:25;;;;;;;29.87;18.37;;;9.30;99.90;;;7.06;100.00;100007.94;10499147;28;20084;-81
2022/11/15 13:30:30;;;;;;;25.90;14.93;;;9.30;99.90;;;7.05;100.00;100016.03;10498387;28;20464;-82
2022/11/15 13:35:40;;;;;;;28.70;16.93;;;9.20;99.90;;;7.02;100.00;100017.19;10516587;28;20417;-82
2022/11/15 13:40:43;;;;;;;30.73;17.97;;;9.20;99.90;;;7.01;100.00;100015.50;10484024;28;20151;-82
2022/11/15 13:46:03;;;;;;;25.23;14.67;;;9.20;99.90;;;7.02;100.00;100003.97;10514640;28;20125;-81
2022/11/15 13:51:18;;;;;;;26.47;14.97;;;9.20;99.90;;;7.05;100.00;100000.19;10510719;28;20139;-82
2022/11/15 13:56:21;;;;;;;27.53;14.70;;;9.20;99.90;;;7.04;100.00;99988.78;10497439;28;20064;-81
2022/11/15 14:01:32;;;;;;;29.60;15.43;;;9.20;99.90;;;7.06;100.00;99983.34;10478024;28;20465;-82
2022/11/15 14:06:47;;;;;;;36.80;19.00;;;9.20;99.90;;;7.06;100.00;99975.41;10481205;28;20061;-82
2022/11/15 14:11:56;;;;;;;54.23;29.57;;;9.20;99.90;;;7.03;100.00;99965.16;10505662;28;20060;-82
2022/11/15 14:17:00;;;;;;;35.93;19.00;;;9.20;99.90;;;6.98;100.00;99962.97;10489371;28;20155;-82
2022/11/15 14:22:22;;;;;;;32.70;17.67;;;9.10;99.90;;;6.94;100.00;99962.41;10534331;28;20115;-82
2022/11/15 14:27:29;;;;;;;29.60;17.50;;;9.10;99.90;;;6.93;100.00;99957.28;10480670;28;20140;-82
2022/11/15 14:32:52;;;;;;;32.10;18.43;;;9.10;99.90;;;6.91;100.00;99957.44;10479611;28;20065;-82
2022/11/15 14:37:59;;;;;;;34.17;18.43;;;9.10;99.90;;;6.88;100.00;99943.69;10504074;28;20068;-82
2022/11/15 14:43:02;;;;;;;35.83;18.33;;;9.00;99.90;;;6.88;100.00;99949.81;10460841;28;20500;-82
2022/11/15 14:48:05;;;;;;;36.13;18.53;;;9.00;99.90;;;6.86;100.00;99937.75;10519405;28;20405;-82
2022/11/15 14:53:14;;;;;;;36.77;20.07;;;9.00;99.90;;;6.83;100.00;99928.28;10501100;28;20457;-82
2022/11/15 14:58:17;;;;;;;44.80;22.17;;;9.00;99.90;;;6.79;100.00;99926.97;10508062;28;20138;-83
2022/11/15 15:03:20;;;;;;;38.43;20.33;;;9.00;99.90;;;6.78;100.00;99927.09;10483379;28;20064;-84
2022/11/15 15:08:23;;;;;;;41.40;19.60;;;9.00;99.90;;;6.77;100.00;99915.69;10489687;28;20496;-83
2022/11/15 15:13:28;;;;;;;33.60;17.30;;;8.90;99.90;;;6.73;100.00;99911.72;10517268;28;20061;-82
2022/11/15 15:18:31;;;;;;;35.07;18.20;;;8.90;99.90;;;6.74;100.00;99909.91;10516783;28;20065;-82
2022/11/15 15:23:35;;;;;;;33.73;17.30;;;8.90;99.90;;;6.74;100.00;99909.91;10475218;28;20140;-82
2022/11/15 15:28:39;;;;;;;35.70;18.83;;;8.90;99.90;;;6.72;100.00;99899.50;10508868;28;20487;-81
2022/11/15 15:33:43;;;;;;;705.83;232.80;;;8.90;99.90;;;6.70;100.00;99907.53;10492473;28;20111;-82
2022/11/15 15:38:46;;;;;;;75.60;29.87;;;8.90;99.90;;;6.69;100.00;99899.78;10500791;28;20455;-82
2022/11/15 15:43:49;;;;;;;63.13;24.13;;;8.90;99.90;;;6.68;100.00;99896.31;10484738;28;20088;-82
2022/11/15 15:48:52;;;;;;;45.40;22.03;;;8.90;99.90;;;6.67;100.00;99897.31;10499805;28;20053;-82
2022/11/15 15:53:57;;;;;;;42.93;22.43;;;8.90;99.90;;;6.70;100.00;99885.59;10519527;28;20835;-82
2022/11/15 15:59:01;;;;;;;35.47;19.43;;;8.90;99.90;;;6.70;100.00;99889.06;10502782;28;20103;-85
2022/11/15 16:04:04;;;;;;;35.17;18.63;;;8.90;99.90;;;6.71;100.00;99896.00;10510766;28;20049;-86
2022/11/15 16:09:12;;;;;;;35.10;18.83;;;8.90;99.90;;;6.68;100.00;99901.59;10486169;28;20961;-85
2022/11/15 16:14:18;;;;;;;34.60;18.60;;;8.90;99.90;;;6.65;100.00;99893.97;10465985;28;20176;-87
2022/11/15 16:19:21;;;;;;;35.47;18.77;;;8.90;99.90;;;6.64;100.00;99894.13;10463341;28;20055;-87
2022/11/15 16:24:24;;;;;;;41.30;19.77;;;8.80;99.90;;;6.61;100.00;99892.63;10436870;28;20053;-85
2022/11/15 16:29:28;;;;;;;29.47;14.97;;;8.80;99.90;;;6.57;100.00;99888.59;10442361;28;20142;-86
2022/11/15 16:34:30;;;;;;;33.57;16.90;;;8.80;99.90;;;6.55;100.00;99890.56;10451336;28;20053;-87
2022/11/15 16:39:41;;;;;;;30.07;16.17;;;8.70;99.90;;;6.53;100.00;99889.03;10457818;28;20069;-86
2022/11/15 16:44:43;;;;;;;33.10;15.80;;;8.70;99.90;;;6.53;100.00;99881.13;10493311;28;20088;-86
2022/11/15 16:49:47;;;;;;;37.63;18.93;;;8.70;99.90;;;6.50;100.00;99882.28;10515432;28;20555;-86
2022/11/15 16:54:50;;;;;;;29.00;15.20;;;8.70;99.90;;;6.50;100.00;99884.09;10529883;27;20061;-86
2022/11/15 16:59:53;;;;;;;53.80;23.60;;;8.70;99.90;;;6.49;100.00;99877.16;10483246;28;20065;-86
2022/11/15 17:04:56;;;;;;;64.03;23.90;;;8.70;99.90;;;6.49;100.00;99867.41;10477517;28;20111;-84
2022/11/15 17:09:59;;;;;;;43.40;18.27;;;8.70;99.90;;;6.48;100.00;99872.81;10497687;28;20065;-83
2022/11/15 17:15:04;;;;;;;60.87;30.47;;;8.70;99.90;;;6.50;100.00;99862.97;10461579;28;20068;-85
2022/11/15 17:20:15;;;;;;;59.63;26.33;;;8.70;99.90;;;6.50;100.00;99863.78;10487704;28;20092;-84
2022/11/15 17:25:19;;;;;;;51.53;26.07;;;8.70;99.90;;;6.51;100.00;99862.81;10487274;28;20128;-85
2022/11/15 17:30:23;;;;;;;46.47;24.10;;;8.70;99.90;;;6.51;100.00;99854.88;10489233;28;20089;-84
2022/11/15 17:35:26;;;;;;;42.37;19.20;;;8.70;99.90;;;6.52;100.00;99851.25;10463859;28;20498;-86
2022/11/15 17:40:29;;;;;;;54.73;25.83;;;8.70;99.90;;;6.50;100.00;99836.56;10494984;28;20460;-87
2022/11/15 17:45:32;;;;;;;32.53;16.93;;;8.70;99.90;;;6.54;100.00;99835.28;10498263;28;20108;-85
2022/11/15 17:50:35;;;;;;;32.83;17.87;;;8.80;99.90;;;6.52;100.00;99824.03;10500804;28;20087;-86
2022/11/15 17:55:38;;;;;;;27.37;13.37;;;8.80;99.90;;;6.51;100.00;99822.38;10471433;28;20493;-86
2022/11/15 18:00:41;;;;;;;26.40;11.97;;;8.80;99.90;;;6.52;100.00;99822.22;10484885;28;20119;-85
2022/11/15 18:05:44;;;;;;;24.67;13.10;;;8.80;99.90;;;6.51;100.00;99804.72;10488856;28;20087;-86
2022/11/15 18:10:47;;;;;;;37.73;17.27;;;8.70;99.90;;;6.52;100.00;99803.75;10508466;28;20061;-84
2022/11/15 18:15:55;;;;;;;27.83;14.07;;;8.80;99.90;;;6.48;100.00;99797.13;10497211;28;20061;-86
2022/11/15 18:21:08;;;;;;;37.00;19.03;;;8.70;99.90;;;6.38;100.00;99788.44;10503595;28;20057;-87
2022/11/15 18:26:15;;;;;;;35.57;17.00;;;8.70;99.90;;;6.38;100.00;99797.19;10509753;28;20060;-87
2022/11/15 18:31:25;;;;;;;42.57;20.80;;;8.60;99.90;;;6.36;100.00;99788.59;10512999;28;20515;-89
2022/11/15 18:36:29;;;;;;;29.97;14.03;;;8.60;99.90;;;6.36;100.00;99785.16;10507459;28;20556;-88
2022/11/15 18:41:33;;;;;;;38.57;18.33;;;8.60;99.90;;;6.34;100.00;99785.28;10487178;28;20151;-88
2022/11/15 18:46:38;;;;;;;34.73;15.70;;;8.50;99.90;;;6.33;100.00;99788.06;10466210;28;20567;-89
2022/11/15 18:51:42;;;;;;;33.63;16.03;;;8.60;99.90;;;6.31;100.00;99768.94;10509005;28;20068;-89
2022/11/15 18:56:45;;;;;;;48.77;22.03;;;8.50;99.90;;;6.32;100.00;99789.06;10495266;28;20068;-88
2022/11/15 19:01:50;;;;;;;50.30;20.87;;;8.50;99.90;;;6.33;100.00;99788.06;10461214;28;20065;-89
2022/11/15 19:06:53;;;;;;;32.47;16.27;;;8.50;99.90;;;6.35;100.00;99775.53;10480790;28;20117;-85
2022/11/15 19:11:57;;;;;;;28.77;14.37;;;8.60;99.90;;;6.38;100.00;99772.63;10501116;28;20061;-85
2022/11/15 19:17:00;;;;;;;40.37;17.53;;;8.50;99.90;;;6.36;100.00;99758.75;10471669;28;20060;-85
2022/11/15 19:22:03;;;;;;;36.47;16.63;;;8.60;99.90;;;6.36;100.00;99756.13;10463665;28;20062;-85
2022/11/15 19:27:06;;;;;;;52.03;21.47;;;8.50;99.90;;;6.37;100.00;99741.94;10508590;28;20440;-82
2022/11/15 19:32:09;;;;;;;44.50;20.03;;;8.60;99.90;;;6.34;100.00;99739.59;10495733;28;20107;-82
2022/11/15 19:37:12;;;;;;;32.63;14.60;;;8.60;99.90;;;6.35;100.00;99749.97;10474085;28;20143;-81
2022/11/15 19:42:15;;;;;;;39.40;15.57;;;8.60;99.90;;;6.37;100.00;99736.66;10454457;28;20513;-82
2022/11/15 19:47:18;;;;;;;33.17;13.63;;;8.60;99.90;;;6.36;100.00;99733.19;10496864;28;20053;-82
2022/11/15 19:52:23;;;;;;;31.73;13.17;;;8.60;99.90;;;6.37;100.00;99731.38;10462426;28;20053;-80
2022/11/15 19:57:26;;;;;;;26.97;12.10;;;8.60;99.90;;;6.36;100.00;99740.28;10488953;28;20057;-81
2022/11/15 20:02:29;;;;;;;30.50;13.10;;;8.60;99.90;;;6.34;100.00;99735.13;10491801;28;20067;-81
2022/11/15 20:07:32;;;;;;;23.77;10.23;;;8.60;99.90;;;6.34;100.00;99726.38;10474601;28;20057;-82
2022/11/15 20:12:34;;;;;;;28.07;10.77;;;8.60;99.90;;;6.36;100.00;99708.59;10504880;28;20112;-81
2022/11/15 20:17:37;;;;;;;26.37;11.07;;;8.60;99.90;;;6.36;100.00;99703.34;10471188;28;20057;-81
2022/11/15 20:22:40;;;;;;;45.90;16.93;;;8.60;99.90;;;6.37;100.00;99694.44;10498013;28;20065;-80
2022/11/15 20:27:44;;;;;;;32.97;13.03;;;8.60;99.90;;;6.36;100.00;99692.78;10464265;28;20080;-82
2022/11/15 20:32:47;;;;;;;31.87;12.93;;;8.60;99.90;;;6.35;100.00;99683.19;10485939;28;20061;-85
2022/11/15 20:37:50;;;;;;;56.27;19.07;;;8.50;99.90;;;6.33;100.00;99687.78;10483278;28;20064;-85
2022/11/15 20:42:53;;;;;;;51.30;20.43;;;8.60;99.90;;;6.32;100.00;99672.94;10483570;28;20061;-85
2022/11/15 20:47:57;;;;;;;51.83;17.83;;;8.50;99.90;;;6.28;100.00;99661.84;10498742;28;20053;-87
2022/11/15 20:53:12;;;;;;;53.37;18.27;;;8.50;99.90;;;6.33;100.00;99662.22;10496399;28;20053;-85
2022/11/15 20:58:16;;;;;;;44.83;16.60;;;8.50;99.90;;;6.34;100.00;99663.88;10509868;28;20071;-85
2022/11/15 21:03:19;;;;;;;58.20;18.73;;;8.50;99.90;;;6.33;100.00;99654.31;10508460;28;20057;-84
2022/11/15 21:08:22;;;;;;;43.20;16.47;;;8.60;99.90;;;6.34;100.00;99661.25;10456236;28;20114;-85
2022/11/15 21:13:25;;;;;;;63.13;17.60;;;8.50;99.90;;;6.35;100.00;99660.25;10509738;28;20189;-86